Time;durP1;ratioP1;P1;durP2;ratioP2;P2;SDS_P1;SDS_P2;PMS_P1;PMS_P2;Temp;Humidity;BMP_temperature;BMP_pressure;BME280_temperature;BME280_humidity;BME280_pressure;Samples;Min_cycle;Max_cycle;Signal;HPM_P1;HPM_P2
2022/01/27 00:05:28;;;;;;;47.15;30.40;;;2.40;99.90;;;;;;5107092;28;20059;-83
2022/01/27 00:22:28;;;;;;;;;;;;;;;;;;;;;
2022/01/27 00:39:04;;;;;;;;;;;;;;;;;;;;;
2022/01/27 01:39:14;;;;;;;;;;;;;;;;;;;;;
2022/01/27 01:41:44;;;;;;;34.50;23.45;;;2.40;99.90;;;;;;5112971;27;20033;-84
2022/01/27 02:02:00;;;;;;;;;;;;;;;;;;;;;
2022/01/27 04:59:45;;;;;;;36.20;23.15;;;1.90;99.90;;;;;;4885372;29;20039;-85
2022/01/27 05:03:03;;;;;;;40.08;24.80;;;1.90;99.90;;;;;;4920623;28;20130;-87
2022/01/27 05:50:48;;;;;;;41.22;24.13;;;1.50;99.90;;;;;;4909250;29;20111;-86
2022/01/27 06:03:12;;;;;;;;;;;;;;;;;;;;;
2022/01/27 06:06:57;;;;;;;35.95;20.60;;;1.40;99.90;;;;;;5045617;28;20037;-85
2022/01/27 06:09:40;;;;;;;39.25;20.90;;;1.40;99.90;;;;;;5007529;28;20057;-86
2022/01/27 06:15:37;;;;;;;31.55;19.90;;;1.30;99.90;;;;;;5046918;28;20031;-86
2022/01/27 06:18:12;;;;;;;40.92;24.38;;;1.30;99.90;;;;;;5019801;28;20026;-85
2022/01/27 06:20:47;;;;;;;36.55;23.85;;;1.20;99.90;;;;;;5071632;28;20028;-85
2022/01/27 06:23:27;;;;;;;33.00;22.90;;;1.20;99.90;;;;;;5074241;28;20505;-84
2022/01/27 06:26:14;;;;;;;34.47;21.27;;;1.20;99.90;;;;;;5103632;28;20031;-85
2022/01/27 06:28:51;;;;;;;36.20;22.83;;;1.20;99.90;;;;;;5079021;28;20402;-86
2022/01/27 06:31:40;;;;;;;34.25;20.45;;;1.20;99.90;;;;;;5097089;28;20118;-85
2022/01/27 06:34:10;;;;;;;29.70;19.38;;;1.20;99.90;;;;;;5102211;28;20036;-85
2022/01/27 06:40:23;;;;;;;32.90;20.02;;;1.20;99.90;;;;;;5098837;28;20045;-85
2022/01/27 06:42:49;;;;;;;40.13;22.77;;;1.30;99.90;;;;;;5081193;28;20051;-85
2022/01/27 06:45:24;;;;;;;43.45;26.15;;;1.30;99.90;;;;;;5100718;28;20060;-86
2022/01/27 06:47:50;;;;;;;33.08;21.55;;;1.30;99.90;;;;;;5116436;27;20063;-85
2022/01/27 06:53:31;;;;;;;35.17;20.77;;;1.50;99.90;;;;;;5124094;27;20040;-85
2022/01/27 06:59:20;;;;;;;35.20;19.38;;;1.60;99.90;;;;;;5071351;28;20021;-84
2022/01/27 07:01:52;;;;;;;28.25;17.73;;;1.80;99.90;;;;;;5074059;28;20043;-85
2022/01/27 07:04:39;;;;;;;30.48;19.50;;;2.00;99.90;;;;;;5097947;27;20035;-85
2022/01/27 07:07:13;;;;;;;31.42;19.50;;;2.10;99.90;;;;;;5124948;27;20023;-85
2022/01/27 07:10:01;;;;;;;27.98;18.95;;;2.20;99.90;;;;;;5117117;27;20035;-85
2022/01/27 07:15:36;;;;;;;63.30;35.60;;;2.30;99.90;;;;;;5119812;27;20065;-84
2022/01/27 07:18:04;;;;;;;70.70;40.15;;;2.40;99.90;;;;;;5115575;27;20024;-86
2022/01/27 07:20:36;;;;;;;67.95;39.28;;;2.50;99.90;;;;;;5118227;27;20020;-87
2022/01/27 07:23:05;;;;;;;54.38;27.77;;;2.60;99.90;;;;;;5119603;27;20041;-86
2022/01/27 07:25:45;;;;;;;34.40;20.83;;;2.70;99.90;;;;;;5117080;27;20115;-83
2022/01/27 07:28:22;;;;;;;33.92;20.35;;;2.80;99.90;;;;;;5115422;27;20024;-84
2022/01/27 07:30:53;;;;;;;32.50;19.27;;;3.00;99.90;;;;;;5114627;27;20037;-88
2022/01/27 07:33:19;;;;;;;36.25;20.92;;;3.20;99.90;;;;;;5116310;27;20106;-84
2022/01/27 07:35:45;;;;;;;36.33;20.63;;;3.40;99.90;;;;;;5116079;27;20106;-85
2022/01/27 07:38:19;;;;;;;33.97;19.30;;;3.50;99.90;;;;;;5117821;27;20450;-85
2022/01/27 07:40:53;;;;;;;36.47;19.60;;;3.70;99.90;;;;;;5122932;27;20535;-86
2022/01/27 07:43:35;;;;;;;33.60;20.15;;;3.80;99.90;;;;;;5114812;27;20028;-85
2022/01/27 07:46:19;;;;;;;33.35;20.75;;;4.00;99.90;;;;;;5112192;27;20401;-86
2022/01/27 07:49:14;;;;;;;37.25;20.35;;;4.10;99.90;;;;;;5101005;27;20044;-85
2022/01/27 07:51:49;;;;;;;31.63;21.02;;;4.30;99.90;;;;;;5097856;28;20026;-86
2022/01/27 07:54:16;;;;;;;30.70;20.08;;;4.50;99.90;;;;;;5114877;27;20059;-85
2022/01/27 07:56:48;;;;;;;34.20;20.55;;;4.50;99.90;;;;;;5122604;27;20106;-85
2022/01/27 07:59:46;;;;;;;35.15;21.02;;;4.60;99.90;;;;;;5128228;27;20034;-85
2022/01/27 08:02:18;;;;;;;28.10;18.45;;;4.80;99.90;;;;;;5092213;27;20032;-85
2022/01/27 08:04:46;;;;;;;37.88;21.65;;;4.90;99.90;;;;;;5099989;27;20023;-85
2022/01/27 08:07:26;;;;;;;33.05;20.00;;;5.00;99.90;;;;;;5103365;27;20096;-85
2022/01/27 08:09:51;;;;;;;32.25;19.63;;;5.20;99.90;;;;;;5121511;27;20122;-84
2022/01/27 08:12:42;;;;;;;28.65;18.63;;;5.30;99.90;;;;;;5121508;27;20106;-85
2022/01/27 08:15:22;;;;;;;36.38;20.08;;;5.40;99.90;;;;;;5096012;27;20069;-85
2022/01/27 08:17:48;;;;;;;28.77;18.98;;;5.60;99.90;;;;;;5122863;27;20083;-84
2022/01/27 08:20:23;;;;;;;30.65;18.98;;;5.70;99.90;;;;;;5121698;27;20032;-85
2022/01/27 08:22:51;;;;;;;32.30;19.33;;;5.80;99.90;;;;;;5127023;27;20035;-85
2022/01/27 08:25:27;;;;;;;29.27;19.23;;;5.90;99.90;;;;;;5122395;27;20038;-85
2022/01/27 08:28:21;;;;;;;30.70;18.90;;;6.00;99.90;;;;;;5090382;28;20031;-84
2022/01/27 08:30:52;;;;;;;30.98;19.42;;;6.20;99.90;;;;;;5109333;27;20041;-85
2022/01/27 08:33:19;;;;;;;32.40;21.13;;;6.30;99.90;;;;;;5122886;27;20041;-85
2022/01/27 08:35:45;;;;;;;30.40;20.67;;;6.30;99.90;;;;;;5116432;27;20027;-84
2022/01/27 08:38:13;;;;;;;33.60;20.30;;;6.50;99.90;;;;;;5116011;27;20020;-84
2022/01/27 08:40:39;;;;;;;37.60;20.23;;;6.50;99.90;;;;;;5123529;27;20046;-85
2022/01/27 08:43:12;;;;;;;35.55;22.25;;;6.60;99.90;;;;;;5128449;27;20102;-84
2022/01/27 08:45:39;;;;;;;34.92;21.15;;;6.70;99.90;;;;;;5121873;27;20031;-85
2022/01/27 08:48:09;;;;;;;32.17;21.58;;;6.70;99.90;;;;;;5140015;27;20039;-84
2022/01/27 08:50:41;;;;;;;41.22;23.80;;;6.80;99.90;;;;;;5123694;27;20392;-85
2022/01/27 08:53:18;;;;;;;33.78;21.77;;;7.00;99.90;;;;;;5147195;27;20023;-84
2022/01/27 08:55:44;;;;;;;39.67;22.88;;;7.30;99.90;;;;;;5143327;27;20030;-85
2022/01/27 08:58:16;;;;;;;42.85;24.90;;;7.50;99.90;;;;;;5145188;27;20026;-84
2022/01/27 09:00:42;;;;;;;37.83;24.15;;;7.70;99.90;;;;;;5120823;27;20396;-84
2022/01/27 09:03:15;;;;;;;42.80;23.63;;;7.80;99.90;;;;;;5133775;27;20034;-85
2022/01/27 09:05:41;;;;;;;38.47;23.25;;;7.90;99.90;;;;;;5126535;27;20057;-84
2022/01/27 09:08:10;;;;;;;37.65;23.58;;;7.90;99.90;;;;;;5137190;27;20024;-85
2022/01/27 09:10:41;;;;;;;41.40;26.15;;;8.00;99.90;;;;;;5142313;27;20033;-84
2022/01/27 09:13:07;;;;;;;44.20;26.48;;;8.00;99.90;;;;;;5127112;27;20031;-83
2022/01/27 09:15:36;;;;;;;41.53;25.23;;;8.10;99.90;;;;;;5141222;27;20030;-84
2022/01/27 09:18:27;;;;;;;43.72;26.75;;;8.30;99.90;;;;;;5125305;27;20072;-85
2022/01/27 09:20:54;;;;;;;53.45;32.15;;;8.50;99.90;;;;;;5140572;27;20054;-88
2022/01/27 09:23:19;;;;;;;90.28;53.90;;;8.70;99.90;;;;;;5118098;27;20113;-86
2022/01/27 09:25:48;;;;;;;76.10;45.40;;;8.90;99.90;;;;;;5125424;27;20453;-83
2022/01/27 09:28:15;;;;;;;75.43;47.25;;;9.00;99.90;;;;;;5120835;27;20031;-88
2022/01/27 09:30:45;;;;;;;74.15;46.38;;;9.10;99.90;;;;;;5144219;27;20030;-83
2022/01/27 09:33:12;;;;;;;76.05;44.13;;;9.20;99.90;;;;;;5146950;27;20022;-85
2022/01/27 09:35:39;;;;;;;75.88;44.53;;;9.40;99.90;;;;;;5124594;27;20050;-84
2022/01/27 09:38:05;;;;;;;80.20;46.85;;;9.60;99.90;;;;;;5124026;27;20102;-84
2022/01/27 09:40:34;;;;;;;86.05;51.22;;;9.90;99.90;;;;;;5142253;27;20041;-83
2022/01/27 09:43:04;;;;;;;78.65;50.65;;;10.00;99.90;;;;;;5147908;27;20054;-84
2022/01/27 09:45:35;;;;;;;74.43;46.50;;;10.10;99.90;;;;;;5142025;27;20383;-84
2022/01/27 09:48:12;;;;;;;67.53;39.78;;;10.10;99.90;;;;;;5135250;27;20569;-85
2022/01/27 09:53:10;;;;;;;70.57;42.63;;;9.90;99.90;;;;;;5146799;27;20450;-85
2022/01/27 09:55:37;;;;;;;67.32;42.88;;;9.90;99.90;;;;;;5125136;27;20023;-84
2022/01/27 09:58:12;;;;;;;68.28;41.17;;;9.80;99.90;;;;;;5137085;27;20469;-84
2022/01/27 10:00:38;;;;;;;61.88;41.70;;;10.00;99.90;;;;;;5141809;27;20051;-83
2022/01/27 10:03:08;;;;;;;67.53;41.00;;;10.10;99.90;;;;;;5148168;27;20050;-84
2022/01/27 10:05:44;;;;;;;89.60;50.00;;;10.10;99.90;;;;;;5145781;27;20556;-84
2022/01/27 10:08:21;;;;;;;81.90;49.58;;;10.30;99.90;;;;;;5133956;27;20023;-84
2022/01/27 10:10:51;;;;;;;75.07;48.92;;;10.40;99.90;;;;;;5120234;27;20027;-84
2022/01/27 10:13:41;;;;;;;77.78;49.22;;;10.50;99.90;;;;;;5143174;27;20030;-83
2022/01/27 10:16:07;;;;;;;69.30;45.20;;;10.60;99.90;;;;;;5137352;27;20019;-84
2022/01/27 10:18:39;;;;;;;83.32;46.45;;;10.70;99.90;;;;;;5117131;27;20490;-83
2022/01/27 10:21:31;;;;;;;81.83;46.23;;;10.70;99.90;;;;;;5140919;27;20034;-85
2022/01/27 10:24:19;;;;;;;73.82;43.22;;;10.60;99.90;;;;;;5117019;27;20042;-85
2022/01/27 10:26:54;;;;;;;73.10;45.17;;;10.70;99.90;;;;;;5140005;27;20110;-84
2022/01/27 10:29:48;;;;;;;80.15;46.92;;;10.60;99.90;;;;;;5131834;27;20035;-83
2022/01/27 10:32:17;;;;;;;75.68;45.33;;;10.50;99.90;;;;;;5147038;27;20495;-84
2022/01/27 10:35:04;;;;;;;77.05;47.25;;;10.70;99.90;;;;;;5122786;27;20083;-85
2022/01/27 10:37:52;;;;;;;197.27;131.05;;;10.50;99.90;;;;;;5130906;27;20019;-90
2022/01/27 10:40:34;;;;;;;94.13;63.70;;;10.30;99.90;;;;;;5125919;27;20130;-91
2022/01/27 10:43:16;;;;;;;79.22;49.00;;;10.30;99.90;;;;;;5132388;27;20020;-93
2022/01/27 10:46:22;;;;;;;83.13;51.38;;;10.10;99.90;;;;;;5113857;27;20038;-87
2022/01/27 10:49:00;;;;;;;82.63;47.67;;;10.00;99.90;;;;;;5131749;27;20042;-88
2022/01/27 10:51:30;;;;;;;125.63;84.57;;;9.80;99.90;;;;;;5129307;27;20031;-90
2022/01/27 10:54:05;;;;;;;692.47;534.70;;;9.60;99.90;;;;;;5120636;27;20362;-88
2022/01/27 10:56:37;;;;;;;375.77;287.05;;;9.30;99.90;;;;;;5142998;27;20031;-87
2022/01/27 10:59:10;;;;;;;106.55;61.70;;;8.80;99.90;;;;;;5134527;27;20171;-89
2022/01/27 11:01:53;;;;;;;101.40;59.38;;;8.50;99.90;;;;;;5122757;27;20141;-88
2022/01/27 11:04:31;;;;;;;89.32;53.65;;;8.40;99.90;;;;;;5121264;27;20586;-83
2022/01/27 11:06:59;;;;;;;311.08;194.82;;;8.70;99.90;;;;;;5149132;27;20034;-90
2022/01/27 11:09:27;;;;;;;326.52;201.57;;;8.90;99.90;;;;;;5121669;27;20485;-88
2022/01/27 11:11:55;;;;;;;90.38;56.63;;;9.10;99.90;;;;;;5144041;27;20128;-88
2022/01/27 11:14:24;;;;;;;90.85;49.80;;;9.10;99.90;;;;;;5119711;27;20031;-88
2022/01/27 11:16:58;;;;;;;76.53;45.55;;;9.40;99.90;;;;;;5146090;27;20033;-89
2022/01/27 11:22:08;;;;;;;192.80;125.65;;;9.80;99.90;;;;;;5141605;27;20110;-88
2022/01/27 11:25:06;;;;;;;82.45;48.88;;;9.90;99.90;;;;;;5137081;27;20049;-90
2022/01/27 11:27:42;;;;;;;119.15;75.38;;;9.80;99.90;;;;;;5142787;27;20513;-90
2022/01/27 11:30:08;;;;;;;86.10;45.40;;;9.90;99.90;;;;;;5122837;27;20034;-81
2022/01/27 11:32:39;;;;;;;391.52;278.77;;;9.50;99.90;;;;;;5144166;27;20083;-84
2022/01/27 11:35:28;;;;;;;336.40;212.18;;;9.10;99.90;;;;;;5121009;27;20062;-91
2022/01/27 11:37:56;;;;;;;143.82;88.63;;;8.50;99.90;;;;;;5146757;27;20038;-85
2022/01/27 11:40:36;;;;;;;148.73;80.90;;;8.20;99.90;;;;;;5123659;27;20019;-83
2022/01/27 11:43:13;;;;;;;271.13;181.32;;;8.10;99.90;;;;;;5132683;27;20027;-82
2022/01/27 11:45:45;;;;;;;128.27;72.55;;;8.00;99.90;;;;;;5143318;27;20058;-82
2022/01/27 11:48:22;;;;;;;110.25;67.53;;;7.90;99.90;;;;;;5131468;27;20055;-88
2022/01/27 11:50:55;;;;;;;333.90;216.25;;;7.80;99.90;;;;;;5145966;27;20500;-82
2022/01/27 11:53:30;;;;;;;111.45;66.25;;;7.90;99.90;;;;;;5120186;27;20031;-83
2022/01/27 11:56:03;;;;;;;118.25;69.85;;;7.70;99.90;;;;;;5109352;27;20027;-83
2022/01/27 11:58:29;;;;;;;110.57;66.80;;;7.60;99.90;;;;;;5119166;27;20054;-83
2022/01/27 12:01:15;;;;;;;162.73;99.60;;;7.60;99.90;;;;;;5144307;27;20023;-83
2022/01/27 12:04:06;;;;;;;125.57;72.28;;;7.50;99.90;;;;;;5137747;27;20027;-82
2022/01/27 12:06:42;;;;;;;122.43;74.70;;;7.30;99.90;;;;;;5140209;27;20076;-83
2022/01/27 12:09:18;;;;;;;113.47;68.57;;;7.20;99.90;;;;;;5109683;27;20093;-82
2022/01/27 12:11:53;;;;;;;139.63;81.80;;;7.20;99.90;;;;;;5086571;28;20025;-82
2022/01/27 12:14:29;;;;;;;148.50;96.25;;;7.20;99.90;;;;;;5080611;28;20020;-82
2022/01/27 12:17:07;;;;;;;104.00;61.88;;;7.20;99.90;;;;;;5087906;28;20024;-82
2022/01/27 12:19:45;;;;;;;102.53;59.40;;;7.30;99.90;;;;;;5083834;28;20028;-82
2022/01/27 12:22:15;;;;;;;179.48;105.32;;;7.30;99.90;;;;;;5089809;28;20546;-82
2022/01/27 12:24:54;;;;;;;120.80;75.57;;;7.30;99.90;;;;;;5086907;28;20024;-82
2022/01/27 12:27:21;;;;;;;165.65;95.95;;;7.40;99.90;;;;;;5080353;28;20027;-82
2022/01/27 12:29:50;;;;;;;749.40;601.33;;;7.40;99.90;;;;;;5082611;28;20048;-82
2022/01/27 12:32:16;;;;;;;835.28;575.25;;;7.30;99.90;;;;;;5075911;28;20020;-82
2022/01/27 12:34:53;;;;;;;110.00;68.60;;;7.30;99.90;;;;;;5084157;28;20508;-83
2022/01/27 12:37:23;;;;;;;115.05;65.25;;;7.40;99.90;;;;;;5075836;28;20073;-82
2022/01/27 12:39:51;;;;;;;100.60;62.17;;;7.40;99.90;;;;;;5082093;28;20028;-82
2022/01/27 12:42:18;;;;;;;106.97;60.20;;;7.40;99.90;;;;;;5083006;28;20090;-82
2022/01/27 12:45:12;;;;;;;103.97;61.85;;;7.40;99.90;;;;;;5103939;28;20028;-82
2022/01/27 12:47:42;;;;;;;106.30;62.38;;;7.40;99.90;;;;;;5097753;27;20047;-83
2022/01/27 12:50:10;;;;;;;120.88;68.70;;;7.50;99.90;;;;;;5103191;28;20478;-83
2022/01/27 12:52:41;;;;;;;110.88;72.97;;;7.50;99.90;;;;;;5103522;28;20011;-82
2022/01/27 12:55:12;;;;;;;106.88;62.28;;;7.40;99.90;;;;;;5103730;28;20536;-82
2022/01/27 12:58:03;;;;;;;110.07;59.25;;;7.40;99.90;;;;;;5104965;28;20028;-83
2022/01/27 13:00:38;;;;;;;452.88;295.13;;;7.50;99.90;;;;;;5083350;28;20098;-82
2022/01/27 13:03:04;;;;;;;342.65;241.65;;;7.50;99.90;;;;;;5114121;27;20027;-83
2022/01/27 13:06:03;;;;;;;139.48;87.97;;;7.40;99.90;;;;;;5089536;28;20035;-84
2022/01/27 13:08:41;;;;;;;100.70;56.83;;;7.40;99.90;;;;;;5088768;27;20497;-82
2022/01/27 13:11:11;;;;;;;125.70;85.43;;;7.40;99.90;;;;;;5111055;27;20028;-83
2022/01/27 13:13:39;;;;;;;98.85;57.30;;;7.50;99.90;;;;;;5109459;27;20481;-83
2022/01/27 13:16:22;;;;;;;95.88;56.70;;;7.50;99.90;;;;;;5105135;28;20385;-83
2022/01/27 13:19:06;;;;;;;91.93;58.38;;;7.50;99.90;;;;;;5105518;28;20023;-82
2022/01/27 13:21:37;;;;;;;98.55;59.10;;;7.40;99.90;;;;;;5096937;28;20028;-82
2022/01/27 13:24:17;;;;;;;109.30;59.33;;;7.30;99.90;;;;;;5090387;28;20491;-83
2022/01/27 13:26:50;;;;;;;101.50;56.63;;;7.10;99.90;;;;;;5098007;28;20020;-83
2022/01/27 13:29:28;;;;;;;192.05;115.97;;;7.10;99.90;;;;;;5111765;28;20688;-82
2022/01/27 13:32:03;;;;;;;126.85;78.72;;;7.20;99.90;;;;;;5091332;28;20428;-82
2022/01/27 13:34:29;;;;;;;124.55;73.45;;;7.20;99.90;;;;;;5083226;28;20073;-82
2022/01/27 13:37:05;;;;;;;147.75;85.88;;;7.20;99.90;;;;;;5102475;28;20028;-82
2022/01/27 13:42:16;;;;;;;142.20;78.60;;;7.20;99.90;;;;;;5103900;27;20478;-82
2022/01/27 13:45:00;;;;;;;141.20;80.63;;;7.10;99.90;;;;;;5107269;27;20656;-81
2022/01/27 13:47:45;;;;;;;162.27;96.05;;;7.10;99.90;;;;;;5108980;28;20048;-81
2022/01/27 13:50:20;;;;;;;255.05;148.32;;;7.10;99.90;;;;;;5108974;27;20035;-81
2022/01/27 13:52:49;;;;;;;522.53;413.70;;;7.20;99.90;;;;;;5113761;27;20077;-82
2022/01/27 13:55:24;;;;;;;119.97;67.65;;;7.20;99.90;;;;;;5107690;28;20024;-82
2022/01/27 13:58:00;;;;;;;245.18;180.82;;;7.30;99.90;;;;;;5101152;28;20036;-79
2022/01/27 14:00:39;;;;;;;99.93;58.88;;;7.30;99.90;;;;;;5111449;27;20462;-80
2022/01/27 14:03:09;;;;;;;90.00;52.45;;;7.30;99.90;;;;;;5105400;28;20028;-82
2022/01/27 14:05:34;;;;;;;92.22;58.42;;;7.40;99.90;;;;;;5104070;28;20026;-80
2022/01/27 14:08:00;;;;;;;91.93;54.30;;;7.50;99.90;;;;;;5102734;28;20032;-80
2022/01/27 14:10:41;;;;;;;99.28;56.95;;;7.60;99.90;;;;;;5103439;28;20033;-81
2022/01/27 14:13:23;;;;;;;96.40;55.70;;;7.60;99.90;;;;;;5106469;28;20020;-81
2022/01/27 14:15:54;;;;;;;80.40;53.90;;;7.60;99.90;;;;;;5111595;27;20654;-85
2022/01/27 14:18:39;;;;;;;120.35;72.60;;;7.50;99.90;;;;;;5109445;28;20616;-80
2022/01/27 14:21:19;;;;;;;89.80;57.13;;;7.40;99.90;;;;;;5102506;28;20111;-79
2022/01/27 14:29:13;;;;;;;93.35;54.38;;;7.20;99.90;;;;;;5101417;28;20126;-79
2022/01/27 14:31:45;;;;;;;89.53;55.78;;;7.10;99.90;;;;;;5110547;27;20058;-79
2022/01/27 14:34:26;;;;;;;91.78;56.50;;;7.10;99.90;;;;;;5112282;27;20034;-79
2022/01/27 14:36:56;;;;;;;94.28;54.95;;;7.10;99.90;;;;;;5111396;28;20027;-79
2022/01/27 14:39:21;;;;;;;97.75;55.65;;;7.10;99.90;;;;;;5100196;28;20032;-80
2022/01/27 14:41:47;;;;;;;94.90;58.28;;;7.10;99.90;;;;;;5094057;28;20173;-80
2022/01/27 14:44:16;;;;;;;101.25;57.35;;;7.10;99.90;;;;;;5100900;28;20076;-81
2022/01/27 14:46:45;;;;;;;107.68;60.33;;;7.10;99.90;;;;;;5114945;27;20526;-81
2022/01/27 14:49:13;;;;;;;106.47;58.63;;;7.20;99.90;;;;;;5100276;27;20475;-81
2022/01/27 14:51:44;;;;;;;89.43;54.63;;;7.10;99.90;;;;;;5103673;27;20101;-81
2022/01/27 14:54:10;;;;;;;95.65;59.47;;;7.10;99.90;;;;;;5089298;28;20024;-81
2022/01/27 14:56:36;;;;;;;94.45;56.53;;;7.10;99.90;;;;;;5103119;28;20389;-81
2022/01/27 14:59:05;;;;;;;98.72;61.17;;;7.10;99.90;;;;;;5097402;28;20032;-81
2022/01/27 15:01:34;;;;;;;86.97;53.78;;;7.10;99.90;;;;;;5100599;28;20023;-80
2022/01/27 15:04:02;;;;;;;88.70;56.80;;;7.00;99.90;;;;;;5108744;27;20027;-81
2022/01/27 15:06:30;;;;;;;93.20;57.28;;;7.00;99.90;;;;;;5080529;28;20091;-81
2022/01/27 15:08:59;;;;;;;96.20;57.63;;;6.90;99.90;;;;;;5105524;28;20036;-80
2022/01/27 15:11:25;;;;;;;100.22;60.15;;;6.90;99.90;;;;;;5086849;28;20017;-80
2022/01/27 15:14:00;;;;;;;95.57;56.10;;;6.80;99.90;;;;;;5098781;28;20028;-81
2022/01/27 15:21:56;;;;;;;92.63;57.30;;;6.70;99.90;;;;;;5104532;28;20015;-82
2022/01/27 15:24:25;;;;;;;91.97;56.08;;;6.80;99.90;;;;;;5099901;28;20032;-80
2022/01/27 15:26:53;;;;;;;103.22;57.17;;;6.70;99.90;;;;;;5102402;28;20050;-80
2022/01/27 15:29:23;;;;;;;99.00;59.38;;;6.70;99.90;;;;;;5088737;28;20067;-82
2022/01/27 15:32:00;;;;;;;108.82;56.53;;;6.70;99.90;;;;;;5102774;28;20040;-79
2022/01/27 15:34:25;;;;;;;86.85;54.83;;;6.70;99.90;;;;;;5085803;28;20032;-79
2022/01/27 15:36:53;;;;;;;88.72;55.55;;;6.60;99.90;;;;;;5082436;28;20550;-79
2022/01/27 15:39:19;;;;;;;100.18;55.28;;;6.70;99.90;;;;;;5101248;28;20024;-79
2022/01/27 15:41:48;;;;;;;98.90;56.15;;;6.60;99.90;;;;;;5101784;28;20035;-79
2022/01/27 15:44:14;;;;;;;102.50;56.63;;;6.60;99.90;;;;;;5100452;28;20165;-79
2022/01/27 15:46:40;;;;;;;88.97;54.05;;;6.60;99.90;;;;;;5103280;27;20509;-79
2022/01/27 15:49:05;;;;;;;90.70;54.70;;;6.60;99.90;;;;;;5108968;28;20095;-78
2022/01/27 15:51:31;;;;;;;84.82;52.13;;;6.60;99.90;;;;;;5108648;28;20119;-78
2022/01/27 15:54:02;;;;;;;89.55;53.50;;;6.70;99.90;;;;;;5095476;28;20028;-77
2022/01/27 15:56:30;;;;;;;93.28;55.13;;;6.70;99.90;;;;;;5101767;27;20032;-79
2022/01/27 15:58:56;;;;;;;81.57;51.80;;;6.60;99.90;;;;;;5114375;27;20039;-79
2022/01/27 16:01:22;;;;;;;92.50;54.47;;;6.60;99.90;;;;;;5098561;27;20012;-79
2022/01/27 16:03:48;;;;;;;110.65;55.60;;;6.60;99.90;;;;;;5120120;27;20531;-80
2022/01/27 16:06:20;;;;;;;91.53;52.83;;;6.70;99.90;;;;;;5110008;27;20023;-79
2022/01/27 16:08:46;;;;;;;85.35;53.05;;;6.70;99.90;;;;;;5109308;27;20038;-79
2022/01/27 16:11:15;;;;;;;89.30;53.35;;;6.70;99.90;;;;;;5104889;27;20027;-79
2022/01/27 16:13:41;;;;;;;79.05;51.67;;;6.70;99.90;;;;;;5109841;28;20027;-79
2022/01/27 16:16:07;;;;;;;79.93;53.65;;;6.70;99.90;;;;;;5108874;27;20496;-80
2022/01/27 16:18:41;;;;;;;89.60;53.33;;;6.90;99.90;;;;;;5091421;28;20035;-79
2022/01/27 16:21:10;;;;;;;89.43;54.33;;;6.90;99.90;;;;;;5099469;28;20446;-79
2022/01/27 16:23:36;;;;;;;83.68;53.17;;;6.90;99.90;;;;;;5086835;28;20063;-80
2022/01/27 16:26:10;;;;;;;83.25;52.33;;;6.90;99.90;;;;;;5080882;28;20024;-80
2022/01/27 16:28:40;;;;;;;88.57;56.08;;;7.00;99.90;;;;;;5093855;28;20035;-80
2022/01/27 16:31:06;;;;;;;92.72;54.85;;;7.00;99.90;;;;;;5092623;28;20038;-79
2022/01/27 16:33:41;;;;;;;85.88;52.75;;;7.00;99.90;;;;;;5110657;28;20135;-84
2022/01/27 16:36:10;;;;;;;89.90;55.70;;;6.90;99.90;;;;;;5099239;28;20118;-81
2022/01/27 16:38:42;;;;;;;93.45;56.50;;;6.90;99.90;;;;;;5100465;28;20024;-81
2022/01/27 16:41:08;;;;;;;91.95;55.83;;;6.90;99.90;;;;;;5092461;28;20050;-81
2022/01/27 16:43:33;;;;;;;108.75;58.28;;;7.00;99.90;;;;;;5106014;28;20872;-81
2022/01/27 16:46:00;;;;;;;96.68;58.13;;;7.00;99.90;;;;;;5101117;28;20030;-81
2022/01/27 16:48:28;;;;;;;101.38;58.67;;;6.90;99.90;;;;;;5106501;28;20070;-81
2022/01/27 16:50:54;;;;;;;96.25;58.85;;;6.80;99.90;;;;;;5107850;28;20038;-81
2022/01/27 16:53:22;;;;;;;94.47;61.35;;;6.70;99.90;;;;;;5104439;28;20102;-81
2022/01/27 16:55:48;;;;;;;101.78;63.33;;;6.70;99.90;;;;;;5109328;28;20071;-82
2022/01/27 16:58:13;;;;;;;109.10;66.50;;;6.70;99.90;;;;;;5098276;28;20020;-83
2022/01/27 17:00:41;;;;;;;103.10;64.22;;;6.70;99.90;;;;;;5102366;28;20031;-80
2022/01/27 17:03:07;;;;;;;108.47;66.85;;;6.60;99.90;;;;;;5113354;27;20081;-81
2022/01/27 17:05:34;;;;;;;119.90;68.60;;;6.60;99.90;;;;;;5102010;28;20020;-81
2022/01/27 17:08:07;;;;;;;126.97;70.00;;;6.60;99.90;;;;;;5101480;28;20024;-82
2022/01/27 17:10:38;;;;;;;118.18;70.32;;;6.60;99.90;;;;;;5106166;28;20494;-82
2022/01/27 17:13:04;;;;;;;107.88;68.05;;;6.60;99.90;;;;;;5105793;28;20031;-81
2022/01/27 17:15:30;;;;;;;109.78;64.93;;;6.60;99.90;;;;;;5103272;28;20030;-81
2022/01/27 17:18:01;;;;;;;113.35;67.75;;;6.60;99.90;;;;;;5107836;28;20016;-81
2022/01/27 17:20:29;;;;;;;106.90;66.82;;;6.60;99.90;;;;;;5100866;28;20356;-81
2022/01/27 17:22:58;;;;;;;105.00;65.65;;;6.60;99.90;;;;;;5107761;28;20110;-81
2022/01/27 17:25:25;;;;;;;103.20;63.63;;;6.60;99.90;;;;;;5102477;28;20370;-81
2022/01/27 17:28:24;;;;;;;107.47;64.30;;;6.60;99.90;;;;;;5103580;28;20027;-81
2022/01/27 17:30:46;;;;;;;104.47;67.13;;;6.60;99.90;;;;;;5105356;28;20036;-80
2022/01/27 17:33:12;;;;;;;104.65;65.15;;;6.60;99.90;;;;;;5107678;28;20019;-82
2022/01/27 17:35:38;;;;;;;113.05;65.05;;;6.50;99.90;;;;;;5084238;28;20024;-81
2022/01/27 17:38:04;;;;;;;111.15;66.07;;;6.50;99.90;;;;;;5100034;28;20069;-82
2022/01/27 17:40:30;;;;;;;109.32;66.38;;;6.50;99.90;;;;;;5101287;28;20035;-81
2022/01/27 17:43:00;;;;;;;109.25;65.22;;;6.60;99.90;;;;;;5090017;28;20031;-81
2022/01/27 17:45:28;;;;;;;111.45;68.45;;;6.60;99.90;;;;;;5081790;28;20035;-81
2022/01/27 17:47:57;;;;;;;112.40;67.80;;;6.70;99.90;;;;;;5107440;28;20048;-81
2022/01/27 17:50:24;;;;;;;111.32;66.25;;;6.80;99.90;;;;;;5102992;28;20028;-81
2022/01/27 17:52:51;;;;;;;114.85;68.10;;;6.80;99.90;;;;;;5108489;28;20109;-81
2022/01/27 17:55:18;;;;;;;113.57;69.32;;;6.80;99.90;;;;;;5105913;27;20028;-81
2022/01/27 17:57:44;;;;;;;113.60;68.03;;;6.80;99.90;;;;;;5104433;28;20023;-80
2022/01/27 18:00:12;;;;;;;113.55;69.25;;;6.90;99.90;;;;;;5090760;28;20058;-80
2022/01/27 18:02:38;;;;;;;115.13;68.25;;;6.90;99.90;;;;;;5115406;28;20011;-81
2022/01/27 18:05:09;;;;;;;119.47;72.50;;;6.90;99.90;;;;;;5109133;28;20024;-80
2022/01/27 18:07:40;;;;;;;110.18;69.68;;;6.90;99.90;;;;;;5094965;28;20489;-81
2022/01/27 18:10:06;;;;;;;110.78;67.90;;;6.90;99.90;;;;;;5099696;28;20032;-81
2022/01/27 18:12:33;;;;;;;132.18;71.32;;;7.00;99.90;;;;;;5099890;28;20052;-81
2022/01/27 18:14:59;;;;;;;117.55;73.75;;;7.00;99.90;;;;;;5084685;28;20118;-80
2022/01/27 18:17:26;;;;;;;119.95;69.55;;;7.00;99.90;;;;;;5100134;28;20095;-81
2022/01/27 18:19:58;;;;;;;117.15;73.40;;;7.00;99.90;;;;;;5109700;27;20034;-80
2022/01/27 18:22:24;;;;;;;129.32;79.57;;;7.00;99.90;;;;;;5087436;28;20024;-81
2022/01/27 18:24:53;;;;;;;124.35;73.40;;;7.00;99.90;;;;;;5083322;28;20063;-80
2022/01/27 18:27:23;;;;;;;120.90;67.70;;;6.90;99.90;;;;;;5080557;28;20354;-80
2022/01/27 18:29:50;;;;;;;113.88;68.68;;;6.90;99.90;;;;;;5102863;28;20042;-81
2022/01/27 18:32:16;;;;;;;112.90;71.05;;;7.00;99.90;;;;;;5095453;28;20016;-80
2022/01/27 18:35:48;;;;;;;148.82;81.72;;;7.00;99.90;;;;;;5098530;28;20034;-81
2022/01/27 18:38:09;;;;;;;120.72;72.05;;;6.90;99.90;;;;;;5082620;28;20490;-82
2022/01/27 18:40:44;;;;;;;115.72;71.88;;;6.90;99.90;;;;;;5042341;28;20029;-82
2022/01/27 18:43:11;;;;;;;122.13;70.25;;;7.00;99.90;;;;;;5046986;28;20066;-82
2022/01/27 18:45:40;;;;;;;114.57;70.07;;;7.00;99.90;;;;;;5046411;28;20730;-81
2022/01/27 18:48:11;;;;;;;114.53;67.60;;;7.00;99.90;;;;;;5047918;28;20049;-82
2022/01/27 18:50:41;;;;;;;111.82;66.82;;;7.00;99.90;;;;;;5046840;28;20071;-81
2022/01/27 18:53:07;;;;;;;98.78;65.70;;;6.90;99.90;;;;;;5083958;28;20017;-83
2022/01/27 18:55:37;;;;;;;102.65;65.85;;;6.90;99.90;;;;;;5086708;28;20529;-82
2022/01/27 18:58:03;;;;;;;114.95;67.72;;;6.90;99.90;;;;;;5088736;28;20076;-82
2022/01/27 19:00:29;;;;;;;119.20;68.63;;;6.90;99.90;;;;;;5085363;28;20169;-81
2022/01/27 19:02:55;;;;;;;112.75;65.72;;;6.80;99.90;;;;;;5099237;28;20034;-81
2022/01/27 19:05:23;;;;;;;106.85;66.30;;;6.80;99.90;;;;;;5099325;28;20028;-81
2022/01/27 19:07:49;;;;;;;114.70;65.35;;;6.70;99.90;;;;;;5081407;28;20020;-81
2022/01/27 19:10:23;;;;;;;112.75;67.53;;;6.80;99.90;;;;;;5083716;28;20043;-83
2022/01/27 19:13:08;;;;;;;104.78;63.83;;;6.70;99.90;;;;;;5079876;28;20017;-81
2022/01/27 19:15:58;;;;;;;102.35;62.28;;;6.70;99.90;;;;;;5083041;28;20033;-82
2022/01/27 19:18:30;;;;;;;106.93;65.93;;;6.70;99.90;;;;;;5087574;28;20023;-81
2022/01/27 19:20:58;;;;;;;106.93;64.15;;;6.80;99.90;;;;;;5087099;28;20032;-92